Flight Track Log - Related Links

Times and Time Zones

All times are in EST time to prevent confusion due to time zone crossing. See the UPS106 flight status page for this flight to view local times or setup timezone preferences in your user account.

Time Position Orientation Groundspeed Altitude Reporting Facility
EST Latitude Longitude Course Direction KTS MPH feet Rate Location/Type
Fri 04:44:32 PM 38.0982 -85.7339 192° South 223 257 3,400  Level FlightAware ADS-B
Fri 04:45:34 PM 38.0809 -85.8035 252° West 244 281 6,600 2,975 Climbing FlightAware ADS-B
Fri 04:46:31 PM 38.1463 -85.8330 340° North 280 322 9,300 2,700 Climbing FlightAware ADS-B
Fri 04:47:14 PM 38.2043 -85.8377 356° North 292 336 11,100 2,032 Climbing FlightAware ADS-B
Fri 04:47:33 PM 38.2263 -85.8234 27° Northeast 355 409 11,400 2,222 Climbing FlightAware ADS-B
Fri 04:48:08 PM 38.2767 -85.7722 39° Northeast 380 437 13,100 3,342 Climbing FlightAware ADS-B
Fri 04:48:52 PM 38.3308 -85.7149 40° Northeast 397 457 15,800 3,357 Climbing FlightAware ADS-B
Fri 04:49:32 PM 38.3982 -85.6500 37° Northeast 414 476 17,800 2,880 Climbing FlightAware ADS-B
Fri 04:50:07 PM 38.4539 -85.6027 34° Northeast 430 495 19,400 2,478 Climbing FlightAware ADS-B
Fri 04:50:18 PM 38.4539 -85.6027 34° Northeast 436 502 19,700 2,442 Climbing FlightAware ADS-B
Fri 04:51:33 PM 38.6046 -85.4771 33° Northeast 469 540 22,900 2,467 Climbing FlightAware ADS-B
Fri 04:52:05 PM 38.5987 -85.4820 213° Southwest 468 539 24,100 2,609 Climbing FlightAware ADS-B (KCVG)
Fri 04:52:42 PM 38.7338 -85.3702 33° Northeast 493 567 25,900 2,225 Climbing FlightAware ADS-B
Fri 04:53:34 PM 38.8339 -85.2870 33° Northeast 507 583 27,400 1,875 Climbing FlightAware ADS-B
Fri 04:54:34 PM 38.9532 -85.1873 33° Northeast 525 604 29,400 2,087 Climbing FlightAware ADS-B
Fri 04:55:29 PM 39.0444 -85.1106 33° Northeast 526 605 31,400 1,979 Climbing FlightAware ADS-B
Fri 04:56:11 PM 39.1237 -85.0442 33° Northeast 536 617 32,600 1,645 Climbing FlightAware ADS-B (KCVG)
Fri 04:57:33 PM 39.3238 -84.8750 33° Northeast 546 628 34,800 1,700 Climbing FlightAware ADS-B
Fri 04:58:11 PM 39.4039 -84.8068 33° Northeast 541 623 36,000 1,481 Climbing FlightAware ADS-B
Fri 04:58:54 PM 39.4827 -84.7396 33° Northeast 541 623 36,800 789 Climbing FlightAware ADS-B
Fri 04:59:27 PM 39.5344 -84.6956 33° Northeast 540 621 37,000 128 Climbing Indianapolis Center
Fri 05:00:28 PM 39.6578 -84.5900 33° Northeast 535 616 37,000  Level Indianapolis Center
Fri 05:01:29 PM 39.7794 -84.4856 33° Northeast 527 606 37,000  Level Indianapolis Center
Fri 05:02:33 PM 39.8942 -84.3072 50° Northeast 557 641 37,000  Level Indianapolis Center
Fri 05:03:34 PM 39.9786 -84.1367 57° Northeast 557 641 37,000  Level Indianapolis Center
Fri 05:04:34 PM 40.0672 -83.9675 56° Northeast 560 644 37,000  Level Indianapolis Center
Fri 05:05:38 PM 40.1533 -83.7950 57° Northeast 562 647 37,000  Level Indianapolis Center
Fri 05:06:38 PM 40.2358 -83.6200 58° Northeast 561 646 37,000  Level Indianapolis Center
Fri 05:07:42 PM 40.3181 -83.4442 58° Northeast 561 646 37,000  Level Indianapolis Center
Fri 05:08:43 PM 40.3989 -83.2683 59° Northeast 561 646 37,000  Level Indianapolis Center
Fri 05:09:46 PM 40.4786 -83.0922 59° Northeast 560 644 37,000  Level Indianapolis Center
Fri 05:10:47 PM 40.5758 -82.9167 54° Northeast 554 638 37,000  Level Indianapolis Center
Fri 05:16:35 PM 41.2108 -82.0851 54° Northeast 563 648 37,000  Level FlightAware ADS-B (EPLB / LUZ)
Fri 05:20:41 PM 41.4772 -81.3064 65° Northeast 563 648 37,000  Level FlightAware ADS-B (EPLB / LUZ)
Fri 05:21:19 PM 41.5165 -81.1904 66° East 563 648 37,000  Level FlightAware ADS-B (EPLB / LUZ)
Fri 05:22:05 PM 41.5658 -81.0447 66° East 564 649 37,000  Level FlightAware ADS-B (EPLB / LUZ)
Fri 05:23:50 PM 41.6717 -80.7280 66° East 561 646 37,000  Level FlightAware ADS-B (EPLB / LUZ)
Fri 05:24:37 PM 41.7126 -80.6041 66° East 561 646 37,000  Level FlightAware ADS-B (EPLB / LUZ)
Fri 05:25:11 PM 41.7580 -80.4656 66° East 560 644 37,000  Level FlightAware ADS-B (EPLB / LUZ)
Fri 05:25:41 PM 41.7916 -80.3633 66° East 560 644 37,000  Level FlightAware ADS-B (EPLB / LUZ)
Fri 05:28:46 PM 41.9843 -79.7674 66° East 558 642 37,000  Level FlightAware ADS-B (EPLB / LUZ)
Fri 05:29:37 PM 42.0305 -79.6227 67° East 558 642 37,000  Level FlightAware ADS-B (EPLB / LUZ)
Fri 05:30:21 PM 42.0781 -79.4732 67° East 558 642 37,000  Level FlightAware ADS-B (EPLB / LUZ)
Fri 05:30:52 PM 42.1093 -79.3735 67° East 559 643 37,000  Level FlightAware ADS-B (EPLB / LUZ)
Fri 05:31:34 PM 42.1512 -79.2406 67° East 559 643 37,000  Level FlightAware ADS-B (EPLB / LUZ)
Fri 05:32:08 PM 42.1836 -79.1300 67° East 558 642 37,000  Level Cleveland Center
Fri 05:33:10 PM 42.2153 -78.9236 78° East 564 649 37,000  Level Cleveland Center
Fri 05:34:12 PM 42.2381 -78.7283 81° East 565 650 37,000  Level Cleveland Center
Fri 05:35:14 PM 42.2631 -78.5186 81° East 567 652 37,000 -192 Level Cleveland Center
Fri 05:41:30 PM 42.4142 -77.2516 81° East 550 633 35,600 -263 Descending FlightAware ADS-B
Fri 05:42:50 PM 42.4392 -77.0294 81° East 543 625 35,000 -277 Descending FlightAware ADS-B
Fri 05:43:40 PM 42.4629 -76.8122 82° East 547 629 35,000  Level FlightAware ADS-B
Fri 05:44:31 PM 42.4793 -76.6596 82° East 550 633 35,000  Level FlightAware ADS-B
Fri 05:45:14 PM 42.5002 -76.4607 82° East 555 639 35,000  Level FlightAware ADS-B
Fri 05:45:44 PM 42.5066 -76.4000 82° East 559 643 35,000  Level FlightAware ADS-B
Fri 05:46:14 PM 42.5149 -76.3200 82° East 557 641 35,000  Level FlightAware ADS-B
Fri 05:46:47 PM 42.5285 -76.1896 82° East 557 641 35,000 -884 Level FlightAware ADS-B
Fri 05:47:49 PM 42.5512 -75.9646 82° East 550 633 33,600 -1,640 Descending FlightAware ADS-B
Fri 05:49:28 PM 42.5193 -75.6037 97° East 550 633 30,600 -1,522 Descending FlightAware ADS-B
Fri 05:50:03 PM 42.5122 -75.5536 101° East 523 602 30,200 -1,120 Descending FlightAware ADS-B
Fri 05:50:43 PM 42.4944 -75.4316 101° East 523 602 29,200 -1,515 Descending FlightAware ADS-B
Fri 05:51:42 PM 42.4709 -75.2528 100° East 516 594 27,700 -1,714 Descending FlightAware ADS-B
Fri 05:52:42 PM 42.4707 -75.0091 90° East 516 594 25,800 -2,188 Descending FlightAware ADS-B
Fri 05:53:18 PM 42.4752 -74.8139 88° East 495 570 24,200 -1,636 Descending FlightAware ADS-B
Fri 05:53:59 PM 42.4763 -74.7494 89° East 491 565 23,700 -1,067 Descending FlightAware ADS-B
Fri 05:54:48 PM 42.4790 -74.6117 88° East 482 555 22,600 -1,725 Descending FlightAware ADS-B
Fri 05:55:19 PM 42.4816 -74.4533 89° East 471 542 21,400 -904 Descending FlightAware ADS-B
Fri 05:56:01 PM 42.4814 -74.4605 269° West 471 542 21,500 -1,350 Climbing FlightAware ADS-B
Fri 05:57:19 PM 42.4547 -74.1128 96° East 440 506 18,700 -2,043 Descending FlightAware ADS-B
Fri 05:58:19 PM 42.4282 -73.9563 103° East 418 481 16,800 -1,350 Descending FlightAware ADS-B
Fri 05:59:19 PM 42.4018 -73.8080 104° East 393 452 16,000 -950 Descending FlightAware ADS-B
Fri 06:00:19 PM 42.3764 -73.6689 104° East 379 436 14,900 -934 Descending FlightAware ADS-B
Fri 06:02:51 PM 42.3149 -73.3339 104° East 348 400 12,700 -1,108 Descending FlightAware ADS-B (KSNC)
Fri 06:03:34 PM 42.2964 -73.2422 104° East 371 427 11,300 -1,437 Descending Boston Center
Fri 06:04:02 PM 42.2875 -73.1817 101° East 362 417 11,000 -689 Descending Boston Center
Fri 06:04:35 PM 42.2733 -73.1114 105° East 348 400 10,600 -689 Descending Boston Center
Fri 06:05:03 PM 42.2656 -73.0542 100° East 350 403 10,300 -689 Descending Boston Center
Fri 06:05:36 PM 42.2528 -72.9878 105° East 325 374 9,900 -885 Descending Boston Center
Fri 06:06:04 PM 42.2450 -72.9361 101° East 327 376 9,400 -1,600 Descending Boston Center
Fri 06:06:36 PM 42.2308 -72.8722 107° East 305 351 8,300 -1,967 Descending Boston Center
Fri 06:07:05 PM 42.2236 -72.8264 102° East 305 351 7,400 -2,066 Descending Boston Center
Fri 06:07:37 PM 42.2089 -72.7656 108° East 295 339 6,200 -1,967 Descending Boston Center
Fri 06:08:06 PM 42.1981 -72.7119 105° East 296 341 5,400 -1,475 Descending Boston Center
Fri 06:08:38 PM 42.1844 -72.6608 110° East 280 322 4,700 -1,355 Descending Boston Center
Fri 06:09:08 PM 42.1694 -72.6172 115° Southeast 273 314 4,000 -800 Descending Boston Center
Fri 06:09:38 PM 42.1406 -72.5900 145° Southeast 226 260 3,900 -197 Descending Boston Center
Fri 06:10:09 PM 42.1189 -72.5658 140° Southeast 222 255 3,800 -689 Descending Boston Center
Fri 06:10:39 PM 42.0981 -72.5428 141° Southeast 182 209 3,200 -1,180 Descending Boston Center
Fri 06:11:10 PM 42.0803 -72.5214 138° Southeast 181 208 2,600 -689 Descending Boston Center
Fri 06:11:40 PM 42.0572 -72.5311 197° South 164 189 2,500 -98 Descending Boston Center
Fri 06:12:11 PM 42.0422 -72.5522 226° Southwest 168 193 2,500 -100 Level Boston Center
Fri 06:12:40 PM 42.0247 -72.5747 224° Southwest 148 170 2,400 -590 Descending Boston Center
Fri 06:13:12 PM 42.0092 -72.5953 224° Southwest 156 180 1,900 -885 Descending Boston Center
Fri 06:13:41 PM 41.9956 -72.6133 225° Southwest 141 162 1,500 -787 Descending Boston Center
Fri 06:14:13 PM 41.9822 -72.6311 225° Southwest 141 162 1,100 -787 Descending Boston Center
Fri 06:14:42 PM 41.9694 -72.6472 223° Southwest 131 151 700 -677 Descending Boston Center
Fri 06:15:15 PM 41.9569 -72.6642 225° Southwest 130 150 400 -545 Descending Boston Center

Login

Don't have an account? Register now (free) for customized features, flight alerts, and more!